sensor_id;sensor_type;location;lat;lon;timestamp;P1;durP1;ratioP1;P2;durP2;ratioP2
73550;SDS011;61816;53.582;10.096;2023-03-11T00:00:41;50.17;;;27.57;;
73550;SDS011;61816;53.582;10.096;2023-03-11T00:03:10;49.63;;;28.40;;
73550;SDS011;61816;53.582;10.096;2023-03-11T00:05:37;48.90;;;29.43;;
73550;SDS011;61816;53.582;10.096;2023-03-11T00:08:04;59.37;;;27.93;;
73550;SDS011;61816;53.582;10.096;2023-03-11T00:10:38;49.50;;;28.67;;
73550;SDS011;61816;53.582;10.096;2023-03-11T00:13:06;61.77;;;30.77;;
73550;SDS011;61816;53.582;10.096;2023-03-11T00:15:32;50.87;;;29.03;;
73550;SDS011;61816;53.582;10.096;2023-03-11T00:17:58;51.73;;;31.00;;
73550;SDS011;61816;53.582;10.096;2023-03-11T00:20:28;58.23;;;31.43;;
73550;SDS011;61816;53.582;10.096;2023-03-11T00:22:56;58.27;;;30.93;;
73550;SDS011;61816;53.582;10.096;2023-03-11T00:25:23;59.10;;;31.87;;
73550;SDS011;61816;53.582;10.096;2023-03-11T00:27:50;59.33;;;32.43;;
73550;SDS011;61816;53.582;10.096;2023-03-11T00:30:15;67.17;;;33.90;;
73550;SDS011;61816;53.582;10.096;2023-03-11T00:32:42;62.07;;;35.57;;
73550;SDS011;61816;53.582;10.096;2023-03-11T00:35:09;63.10;;;35.83;;
73550;SDS011;61816;53.582;10.096;2023-03-11T00:37:37;71.03;;;34.67;;
73550;SDS011;61816;53.582;10.096;2023-03-11T00:40:02;60.50;;;32.30;;
73550;SDS011;61816;53.582;10.096;2023-03-11T00:42:32;69.37;;;34.43;;
73550;SDS011;61816;53.582;10.096;2023-03-11T00:44:57;63.00;;;34.87;;
73550;SDS011;61816;53.582;10.096;2023-03-11T00:47:23;63.80;;;35.10;;
73550;SDS011;61816;53.582;10.096;2023-03-11T00:49:48;72.97;;;32.93;;
73550;SDS011;61816;53.582;10.096;2023-03-11T00:52:14;65.07;;;33.73;;
73550;SDS011;61816;53.582;10.096;2023-03-11T00:54:39;66.13;;;35.43;;
73550;SDS011;61816;53.582;10.096;2023-03-11T00:57:04;59.37;;;35.40;;
73550;SDS011;61816;53.582;10.096;2023-03-11T00:59:30;55.30;;;34.07;;
73550;SDS011;61816;53.582;10.096;2023-03-11T01:01:55;69.97;;;34.40;;
73550;SDS011;61816;53.582;10.096;2023-03-11T01:04:20;57.17;;;31.03;;
73550;SDS011;61816;53.582;10.096;2023-03-11T01:06:46;67.57;;;35.27;;
73550;SDS011;61816;53.582;10.096;2023-03-11T01:09:11;61.10;;;32.97;;
73550;SDS011;61816;53.582;10.096;2023-03-11T01:11:37;62.87;;;33.57;;
73550;SDS011;61816;53.582;10.096;2023-03-11T01:14:02;65.07;;;34.67;;
73550;SDS011;61816;53.582;10.096;2023-03-11T01:16:28;67.17;;;35.40;;
73550;SDS011;61816;53.582;10.096;2023-03-11T01:18:53;61.57;;;32.87;;
73550;SDS011;61816;53.582;10.096;2023-03-11T01:21:19;67.53;;;35.40;;
73550;SDS011;61816;53.582;10.096;2023-03-11T01:23:44;74.13;;;35.17;;
73550;SDS011;61816;53.582;10.096;2023-03-11T01:26:09;74.70;;;36.97;;
73550;SDS011;61816;53.582;10.096;2023-03-11T01:28:35;68.20;;;36.53;;
73550;SDS011;61816;53.582;10.096;2023-03-11T01:31:00;67.57;;;35.43;;
73550;SDS011;61816;53.582;10.096;2023-03-11T01:33:25;67.03;;;35.53;;
73550;SDS011;61816;53.582;10.096;2023-03-11T01:35:51;70.37;;;38.33;;
73550;SDS011;61816;53.582;10.096;2023-03-11T01:38:16;68.83;;;37.73;;
73550;SDS011;61816;53.582;10.096;2023-03-11T01:40:43;66.80;;;34.57;;
73550;SDS011;61816;53.582;10.096;2023-03-11T01:46:20;56.57;;;29.93;;
73550;SDS011;61816;53.582;10.096;2023-03-11T01:48:49;54.33;;;30.00;;
73550;SDS011;61816;53.582;10.096;2023-03-11T01:51:16;58.03;;;31.77;;
73550;SDS011;61816;53.582;10.096;2023-03-11T01:53:47;59.33;;;30.58;;
73550;SDS011;61816;53.582;10.096;2023-03-11T01:56:12;51.17;;;32.27;;
73550;SDS011;61816;53.582;10.096;2023-03-11T01:58:38;50.20;;;31.63;;
73550;SDS011;61816;53.582;10.096;2023-03-11T02:01:09;57.57;;;30.53;;
73550;SDS011;61816;53.582;10.096;2023-03-11T02:03:37;55.97;;;28.77;;
73550;SDS011;61816;53.582;10.096;2023-03-11T02:06:05;49.23;;;31.20;;
73550;SDS011;61816;53.582;10.096;2023-03-11T02:08:35;52.20;;;29.97;;
73550;SDS011;61816;53.582;10.096;2023-03-11T02:11:01;47.70;;;27.83;;
73550;SDS011;61816;53.582;10.096;2023-03-11T02:13:29;51.27;;;28.87;;
73550;SDS011;61816;53.582;10.096;2023-03-11T02:15:58;49.20;;;28.27;;
73550;SDS011;61816;53.582;10.096;2023-03-11T02:18:24;48.30;;;27.17;;
73550;SDS011;61816;53.582;10.096;2023-03-11T02:24:17;47.17;;;27.20;;
73550;SDS011;61816;53.582;10.096;2023-03-11T02:26:33;53.20;;;29.33;;
73550;SDS011;61816;53.582;10.096;2023-03-11T02:29:00;56.90;;;29.17;;
73550;SDS011;61816;53.582;10.096;2023-03-11T02:31:28;53.53;;;31.00;;
73550;SDS011;61816;53.582;10.096;2023-03-11T02:33:55;51.10;;;28.87;;
73550;SDS011;61816;53.582;10.096;2023-03-11T02:36:33;56.03;;;29.67;;
73550;SDS011;61816;53.582;10.096;2023-03-11T02:39:01;54.03;;;30.60;;
73550;SDS011;61816;53.582;10.096;2023-03-11T02:41:27;59.43;;;30.63;;
73550;SDS011;61816;53.582;10.096;2023-03-11T02:43:53;56.77;;;29.67;;
73550;SDS011;61816;53.582;10.096;2023-03-11T02:46:20;53.40;;;29.40;;
73550;SDS011;61816;53.582;10.096;2023-03-11T02:48:45;54.53;;;29.87;;
73550;SDS011;61816;53.582;10.096;2023-03-11T02:51:12;50.50;;;27.77;;
73550;SDS011;61816;53.582;10.096;2023-03-11T02:53:40;47.70;;;27.93;;
73550;SDS011;61816;53.582;10.096;2023-03-11T02:56:11;56.20;;;30.63;;
73550;SDS011;61816;53.582;10.096;2023-03-11T02:58:36;51.13;;;28.33;;
73550;SDS011;61816;53.582;10.096;2023-03-11T03:01:02;61.03;;;29.43;;
73550;SDS011;61816;53.582;10.096;2023-03-11T03:03:27;54.73;;;29.30;;
73550;SDS011;61816;53.582;10.096;2023-03-11T03:05:53;52.47;;;28.83;;
73550;SDS011;61816;53.582;10.096;2023-03-11T03:08:18;51.57;;;29.50;;
73550;SDS011;61816;53.582;10.096;2023-03-11T03:10:44;51.93;;;27.70;;
73550;SDS011;61816;53.582;10.096;2023-03-11T03:13:09;56.43;;;26.70;;
73550;SDS011;61816;53.582;10.096;2023-03-11T03:15:34;45.43;;;27.27;;
73550;SDS011;61816;53.582;10.096;2023-03-11T03:18:00;50.40;;;27.93;;
73550;SDS011;61816;53.582;10.096;2023-03-11T03:20:25;50.40;;;29.57;;
73550;SDS011;61816;53.582;10.096;2023-03-11T03:22:51;49.20;;;28.97;;
73550;SDS011;61816;53.582;10.096;2023-03-11T03:25:16;41.57;;;25.17;;
73550;SDS011;61816;53.582;10.096;2023-03-11T03:27:42;44.93;;;25.70;;
73550;SDS011;61816;53.582;10.096;2023-03-11T03:30:07;42.77;;;24.63;;
73550;SDS011;61816;53.582;10.096;2023-03-11T03:32:34;47.00;;;25.33;;
73550;SDS011;61816;53.582;10.096;2023-03-11T03:35:00;41.80;;;23.30;;
73550;SDS011;61816;53.582;10.096;2023-03-11T03:37:26;36.10;;;21.50;;
73550;SDS011;61816;53.582;10.096;2023-03-11T03:39:52;34.70;;;20.10;;
73550;SDS011;61816;53.582;10.096;2023-03-11T03:42:18;31.23;;;19.10;;
73550;SDS011;61816;53.582;10.096;2023-03-11T03:44:43;34.70;;;20.77;;
73550;SDS011;61816;53.582;10.096;2023-03-11T03:47:09;40.90;;;21.70;;
73550;SDS011;61816;53.582;10.096;2023-03-11T03:49:36;38.37;;;22.23;;
73550;SDS011;61816;53.582;10.096;2023-03-11T03:52:02;38.97;;;20.33;;
73550;SDS011;61816;53.582;10.096;2023-03-11T03:54:29;37.23;;;20.80;;
73550;SDS011;61816;53.582;10.096;2023-03-11T03:56:54;37.50;;;22.70;;
73550;SDS011;61816;53.582;10.096;2023-03-11T03:59:20;39.07;;;20.93;;
73550;SDS011;61816;53.582;10.096;2023-03-11T04:01:45;36.50;;;22.47;;
73550;SDS011;61816;53.582;10.096;2023-03-11T04:04:11;49.63;;;25.07;;
73550;SDS011;61816;53.582;10.096;2023-03-11T04:06:36;43.40;;;23.20;;
73550;SDS011;61816;53.582;10.096;2023-03-11T04:09:02;42.00;;;23.30;;
73550;SDS011;61816;53.582;10.096;2023-03-11T04:11:27;41.23;;;22.53;;
73550;SDS011;61816;53.582;10.096;2023-03-11T04:13:53;41.83;;;22.83;;
73550;SDS011;61816;53.582;10.096;2023-03-11T04:16:19;37.93;;;21.67;;
73550;SDS011;61816;53.582;10.096;2023-03-11T04:18:47;49.23;;;25.57;;
73550;SDS011;61816;53.582;10.096;2023-03-11T04:21:13;48.27;;;25.47;;
73550;SDS011;61816;53.582;10.096;2023-03-11T04:23:38;42.13;;;23.23;;
73550;SDS011;61816;53.582;10.096;2023-03-11T04:26:04;41.20;;;23.53;;
73550;SDS011;61816;53.582;10.096;2023-03-11T04:28:30;42.83;;;23.20;;
73550;SDS011;61816;53.582;10.096;2023-03-11T04:30:55;45.07;;;22.87;;
73550;SDS011;61816;53.582;10.096;2023-03-11T04:33:21;44.03;;;24.83;;
73550;SDS011;61816;53.582;10.096;2023-03-11T04:35:46;40.60;;;23.30;;
73550;SDS011;61816;53.582;10.096;2023-03-11T04:38:11;37.97;;;21.77;;
73550;SDS011;61816;53.582;10.096;2023-03-11T04:40:37;40.33;;;22.43;;
73550;SDS011;61816;53.582;10.096;2023-03-11T04:43:03;39.37;;;23.83;;
73550;SDS011;61816;53.582;10.096;2023-03-11T04:45:28;45.17;;;22.53;;
73550;SDS011;61816;53.582;10.096;2023-03-11T04:47:53;45.60;;;22.67;;
73550;SDS011;61816;53.582;10.096;2023-03-11T04:50:19;40.00;;;22.13;;
73550;SDS011;61816;53.582;10.096;2023-03-11T04:52:45;45.03;;;23.83;;
73550;SDS011;61816;53.582;10.096;2023-03-11T04:55:11;44.33;;;23.47;;
73550;SDS011;61816;53.582;10.096;2023-03-11T04:57:38;39.47;;;22.87;;
73550;SDS011;61816;53.582;10.096;2023-03-11T05:00:05;38.23;;;22.23;;
73550;SDS011;61816;53.582;10.096;2023-03-11T05:02:33;44.00;;;21.37;;
73550;SDS011;61816;53.582;10.096;2023-03-11T05:04:59;38.17;;;21.23;;
73550;SDS011;61816;53.582;10.096;2023-03-11T05:07:24;47.13;;;23.50;;
73550;SDS011;61816;53.582;10.096;2023-03-11T05:09:50;37.87;;;22.63;;
73550;SDS011;61816;53.582;10.096;2023-03-11T05:12:15;42.97;;;22.17;;
73550;SDS011;61816;53.582;10.096;2023-03-11T05:14:41;47.00;;;24.83;;
73550;SDS011;61816;53.582;10.096;2023-03-11T05:17:06;51.63;;;23.00;;
73550;SDS011;61816;53.582;10.096;2023-03-11T05:19:32;48.53;;;25.07;;
73550;SDS011;61816;53.582;10.096;2023-03-11T05:21:59;47.77;;;24.47;;
73550;SDS011;61816;53.582;10.096;2023-03-11T05:24:26;43.90;;;23.60;;
73550;SDS011;61816;53.582;10.096;2023-03-11T05:26:52;45.97;;;24.00;;
73550;SDS011;61816;53.582;10.096;2023-03-11T05:29:18;46.70;;;23.20;;
73550;SDS011;61816;53.582;10.096;2023-03-11T05:31:43;45.97;;;26.00;;
73550;SDS011;61816;53.582;10.096;2023-03-11T05:34:09;54.43;;;26.13;;
73550;SDS011;61816;53.582;10.096;2023-03-11T05:36:34;54.43;;;24.13;;
73550;SDS011;61816;53.582;10.096;2023-03-11T05:38:59;50.27;;;28.07;;
73550;SDS011;61816;53.582;10.096;2023-03-11T05:41:25;51.77;;;26.33;;
73550;SDS011;61816;53.582;10.096;2023-03-11T05:43:50;45.63;;;24.43;;
73550;SDS011;61816;53.582;10.096;2023-03-11T05:46:16;53.70;;;26.90;;
73550;SDS011;61816;53.582;10.096;2023-03-11T05:48:41;51.90;;;24.23;;
73550;SDS011;61816;53.582;10.096;2023-03-11T05:51:07;44.70;;;24.30;;
73550;SDS011;61816;53.582;10.096;2023-03-11T05:53:33;47.27;;;23.27;;
73550;SDS011;61816;53.582;10.096;2023-03-11T05:55:59;49.20;;;24.37;;
73550;SDS011;61816;53.582;10.096;2023-03-11T05:58:29;45.03;;;23.97;;
73550;SDS011;61816;53.582;10.096;2023-03-11T06:00:55;49.03;;;26.60;;
73550;SDS011;61816;53.582;10.096;2023-03-11T06:03:21;49.93;;;25.30;;
73550;SDS011;61816;53.582;10.096;2023-03-11T06:05:47;50.47;;;24.67;;
73550;SDS011;61816;53.582;10.096;2023-03-11T06:08:13;49.67;;;23.87;;
73550;SDS011;61816;53.582;10.096;2023-03-11T06:10:40;46.10;;;24.50;;
73550;SDS011;61816;53.582;10.096;2023-03-11T06:13:05;41.50;;;22.27;;
73550;SDS011;61816;53.582;10.096;2023-03-11T06:15:31;40.77;;;22.70;;
73550;SDS011;61816;53.582;10.096;2023-03-11T06:17:57;41.27;;;21.00;;
73550;SDS011;61816;53.582;10.096;2023-03-11T06:20:23;49.10;;;22.17;;
73550;SDS011;61816;53.582;10.096;2023-03-11T06:22:49;40.50;;;19.87;;
73550;SDS011;61816;53.582;10.096;2023-03-11T06:25:15;39.87;;;20.30;;
73550;SDS011;61816;53.582;10.096;2023-03-11T06:27:41;36.97;;;20.03;;
73550;SDS011;61816;53.582;10.096;2023-03-11T06:30:08;34.07;;;19.23;;
73550;SDS011;61816;53.582;10.096;2023-03-11T06:32:34;40.60;;;20.63;;
73550;SDS011;61816;53.582;10.096;2023-03-11T06:35:01;35.70;;;19.57;;
73550;SDS011;61816;53.582;10.096;2023-03-11T06:37:27;37.00;;;20.93;;
73550;SDS011;61816;53.582;10.096;2023-03-11T06:39:53;38.33;;;20.63;;
73550;SDS011;61816;53.582;10.096;2023-03-11T06:42:18;35.77;;;19.60;;
73550;SDS011;61816;53.582;10.096;2023-03-11T06:44:48;39.57;;;19.43;;
73550;SDS011;61816;53.582;10.096;2023-03-11T06:47:14;36.73;;;19.63;;
73550;SDS011;61816;53.582;10.096;2023-03-11T06:49:40;42.97;;;19.33;;
73550;SDS011;61816;53.582;10.096;2023-03-11T06:52:06;43.17;;;19.07;;
73550;SDS011;61816;53.582;10.096;2023-03-11T06:54:33;36.83;;;19.67;;
73550;SDS011;61816;53.582;10.096;2023-03-11T06:56:58;37.53;;;19.20;;
73550;SDS011;61816;53.582;10.096;2023-03-11T06:59:24;36.73;;;19.57;;
73550;SDS011;61816;53.582;10.096;2023-03-11T07:01:49;35.20;;;18.27;;
73550;SDS011;61816;53.582;10.096;2023-03-11T07:04:15;37.43;;;18.97;;
73550;SDS011;61816;53.582;10.096;2023-03-11T07:06:40;35.67;;;18.53;;
73550;SDS011;61816;53.582;10.096;2023-03-11T07:09:06;33.50;;;17.93;;
73550;SDS011;61816;53.582;10.096;2023-03-11T07:11:32;34.13;;;18.67;;
73550;SDS011;61816;53.582;10.096;2023-03-11T07:13:57;35.23;;;19.07;;
73550;SDS011;61816;53.582;10.096;2023-03-11T07:16:27;32.77;;;18.43;;
73550;SDS011;61816;53.582;10.096;2023-03-11T07:18:54;37.57;;;18.00;;
73550;SDS011;61816;53.582;10.096;2023-03-11T07:21:22;33.87;;;17.30;;
73550;SDS011;61816;53.582;10.096;2023-03-11T07:23:51;32.13;;;17.90;;
73550;SDS011;61816;53.582;10.096;2023-03-11T07:26:17;33.33;;;17.77;;
73550;SDS011;61816;53.582;10.096;2023-03-11T07:28:43;36.40;;;18.40;;
73550;SDS011;61816;53.582;10.096;2023-03-11T07:31:20;31.67;;;16.83;;
73550;SDS011;61816;53.582;10.096;2023-03-11T07:33:47;29.27;;;16.70;;
73550;SDS011;61816;53.582;10.096;2023-03-11T07:36:14;29.10;;;16.90;;
73550;SDS011;61816;53.582;10.096;2023-03-11T07:38:41;36.33;;;15.93;;
73550;SDS011;61816;53.582;10.096;2023-03-11T07:41:08;32.53;;;17.80;;
73550;SDS011;61816;53.582;10.096;2023-03-11T07:43:35;31.80;;;16.50;;
73550;SDS011;61816;53.582;10.096;2023-03-11T07:46:01;22.67;;;13.67;;
73550;SDS011;61816;53.582;10.096;2023-03-11T07:48:38;26.10;;;14.47;;
73550;SDS011;61816;53.582;10.096;2023-03-11T07:51:09;28.80;;;14.60;;
73550;SDS011;61816;53.582;10.096;2023-03-11T07:53:36;25.33;;;13.10;;
73550;SDS011;61816;53.582;10.096;2023-03-11T07:56:02;24.93;;;14.37;;
73550;SDS011;61816;53.582;10.096;2023-03-11T07:58:28;31.33;;;13.40;;
73550;SDS011;61816;53.582;10.096;2023-03-11T08:00:54;24.40;;;12.50;;
73550;SDS011;61816;53.582;10.096;2023-03-11T08:03:21;24.63;;;12.60;;
73550;SDS011;61816;53.582;10.096;2023-03-11T08:05:48;22.57;;;11.53;;
73550;SDS011;61816;53.582;10.096;2023-03-11T08:08:14;25.67;;;11.03;;
73550;SDS011;61816;53.582;10.096;2023-03-11T08:10:39;24.80;;;12.07;;
73550;SDS011;61816;53.582;10.096;2023-03-11T08:13:05;22.97;;;12.77;;
73550;SDS011;61816;53.582;10.096;2023-03-11T08:15:30;26.10;;;12.07;;
73550;SDS011;61816;53.582;10.096;2023-03-11T08:17:55;21.17;;;11.27;;
73550;SDS011;61816;53.582;10.096;2023-03-11T08:20:21;22.17;;;11.27;;
73550;SDS011;61816;53.582;10.096;2023-03-11T08:22:46;21.27;;;9.77;;
73550;SDS011;61816;53.582;10.096;2023-03-11T08:25:12;21.30;;;10.07;;
73550;SDS011;61816;53.582;10.096;2023-03-11T08:27:37;21.30;;;10.37;;
73550;SDS011;61816;53.582;10.096;2023-03-11T08:30:04;15.43;;;9.30;;
73550;SDS011;61816;53.582;10.096;2023-03-11T08:32:30;16.83;;;9.10;;
73550;SDS011;61816;53.582;10.096;2023-03-11T08:34:56;20.30;;;9.80;;
73550;SDS011;61816;53.582;10.096;2023-03-11T08:37:22;15.23;;;9.00;;
73550;SDS011;61816;53.582;10.096;2023-03-11T08:39:48;18.10;;;8.57;;
73550;SDS011;61816;53.582;10.096;2023-03-11T08:42:14;18.57;;;9.03;;
73550;SDS011;61816;53.582;10.096;2023-03-11T08:44:40;17.43;;;8.87;;
73550;SDS011;61816;53.582;10.096;2023-03-11T08:47:05;14.63;;;7.57;;
73550;SDS011;61816;53.582;10.096;2023-03-11T08:49:31;19.30;;;9.57;;
73550;SDS011;61816;53.582;10.096;2023-03-11T08:51:56;19.40;;;8.80;;
73550;SDS011;61816;53.582;10.096;2023-03-11T08:54:22;12.10;;;6.53;;
73550;SDS011;61816;53.582;10.096;2023-03-11T08:56:47;14.17;;;6.07;;
73550;SDS011;61816;53.582;10.096;2023-03-11T08:59:13;11.90;;;6.00;;
73550;SDS011;61816;53.582;10.096;2023-03-11T09:01:39;14.87;;;6.07;;
73550;SDS011;61816;53.582;10.096;2023-03-11T09:04:06;14.70;;;6.40;;
73550;SDS011;61816;53.582;10.096;2023-03-11T09:06:32;14.93;;;6.30;;
73550;SDS011;61816;53.582;10.096;2023-03-11T09:08:57;9.20;;;4.87;;
73550;SDS011;61816;53.582;10.096;2023-03-11T09:11:23;14.47;;;5.60;;
73550;SDS011;61816;53.582;10.096;2023-03-11T09:13:49;10.93;;;5.40;;
73550;SDS011;61816;53.582;10.096;2023-03-11T09:16:15;16.60;;;6.33;;
73550;SDS011;61816;53.582;10.096;2023-03-11T09:18:45;15.05;;;5.43;;
73550;SDS011;61816;53.582;10.096;2023-03-11T09:21:11;18.97;;;5.70;;
73550;SDS011;61816;53.582;10.096;2023-03-11T09:23:37;8.07;;;4.67;;
73550;SDS011;61816;53.582;10.096;2023-03-11T09:26:02;16.40;;;4.70;;
73550;SDS011;61816;53.582;10.096;2023-03-11T09:28:28;14.07;;;5.27;;
73550;SDS011;61816;53.582;10.096;2023-03-11T09:30:53;15.95;;;4.68;;
73550;SDS011;61816;53.582;10.096;2023-03-11T09:33:19;10.13;;;5.03;;
73550;SDS011;61816;53.582;10.096;2023-03-11T09:35:44;14.82;;;5.22;;
73550;SDS011;61816;53.582;10.096;2023-03-11T09:38:10;12.65;;;5.07;;
73550;SDS011;61816;53.582;10.096;2023-03-11T09:40:44;8.63;;;3.87;;
73550;SDS011;61816;53.582;10.096;2023-03-11T09:54:33;14.13;;;5.03;;
73550;SDS011;61816;53.582;10.096;2023-03-11T09:57:03;11.52;;;5.03;;
73550;SDS011;61816;53.582;10.096;2023-03-11T09:59:30;17.60;;;4.95;;
73550;SDS011;61816;53.582;10.096;2023-03-11T10:01:57;8.02;;;4.32;;
73550;SDS011;61816;53.582;10.096;2023-03-11T10:04:35;14.93;;;4.05;;
73550;SDS011;61816;53.582;10.096;2023-03-11T10:07:09;13.38;;;3.75;;
73550;SDS011;61816;53.582;10.096;2023-03-11T10:12:56;21.40;;;4.80;;
73550;SDS011;61816;53.582;10.096;2023-03-11T10:15:24;19.42;;;4.32;;
73550;SDS011;61816;53.582;10.096;2023-03-11T10:18:02;7.03;;;3.15;;
73550;SDS011;61816;53.582;10.096;2023-03-11T10:20:41;9.35;;;3.40;;
73550;SDS011;61816;53.582;10.096;2023-03-11T10:26:18;11.50;;;4.07;;
73550;SDS011;61816;53.582;10.096;2023-03-11T10:28:50;15.82;;;3.30;;
73550;SDS011;61816;53.582;10.096;2023-03-11T10:31:23;16.45;;;3.53;;
73550;SDS011;61816;53.582;10.096;2023-03-11T10:34:08;14.00;;;3.60;;
73550;SDS011;61816;53.582;10.096;2023-03-11T10:36:42;8.15;;;3.38;;
73550;SDS011;61816;53.582;10.096;2023-03-11T10:39:31;8.75;;;3.50;;
73550;SDS011;61816;53.582;10.096;2023-03-11T10:42:04;12.63;;;3.53;;
73550;SDS011;61816;53.582;10.096;2023-03-11T10:44:37;14.48;;;3.75;;
73550;SDS011;61816;53.582;10.096;2023-03-11T10:47:03;11.07;;;3.35;;
73550;SDS011;61816;53.582;10.096;2023-03-11T10:49:30;9.98;;;2.80;;
73550;SDS011;61816;53.582;10.096;2023-03-11T10:51:56;14.80;;;3.97;;
73550;SDS011;61816;53.582;10.096;2023-03-11T10:54:33;6.28;;;3.40;;
73550;SDS011;61816;53.582;10.096;2023-03-11T10:57:04;10.70;;;3.28;;
73550;SDS011;61816;53.582;10.096;2023-03-11T11:02:28;9.68;;;3.13;;
73550;SDS011;61816;53.582;10.096;2023-03-11T11:07:46;12.93;;;2.85;;
73550;SDS011;61816;53.582;10.096;2023-03-11T11:10:14;11.43;;;2.78;;
73550;SDS011;61816;53.582;10.096;2023-03-11T11:12:51;9.88;;;3.65;;
73550;SDS011;61816;53.582;10.096;2023-03-11T11:15:20;8.98;;;2.60;;
73550;SDS011;61816;53.582;10.096;2023-03-11T11:18:13;7.85;;;2.88;;
73550;SDS011;61816;53.582;10.096;2023-03-11T11:21:46;11.23;;;3.08;;
73550;SDS011;61816;53.582;10.096;2023-03-11T11:24:14;11.38;;;3.42;;
73550;SDS011;61816;53.582;10.096;2023-03-11T11:29:32;13.07;;;4.10;;
73550;SDS011;61816;53.582;10.096;2023-03-11T11:34:39;11.48;;;4.10;;
73550;SDS011;61816;53.582;10.096;2023-03-11T11:37:05;10.52;;;3.50;;
73550;SDS011;61816;53.582;10.096;2023-03-11T11:39:48;9.85;;;3.72;;
73550;SDS011;61816;53.582;10.096;2023-03-11T11:42:20;9.65;;;2.92;;
73550;SDS011;61816;53.582;10.096;2023-03-11T11:44:50;9.27;;;3.20;;
73550;SDS011;61816;53.582;10.096;2023-03-11T11:47:27;27.90;;;4.43;;
73550;SDS011;61816;53.582;10.096;2023-03-11T11:49:57;23.88;;;3.40;;
73550;SDS011;61816;53.582;10.096;2023-03-11T11:52:30;13.77;;;3.05;;
73550;SDS011;61816;53.582;10.096;2023-03-11T11:55:06;8.43;;;3.45;;
73550;SDS011;61816;53.582;10.096;2023-03-11T11:57:45;11.32;;;2.95;;
73550;SDS011;61816;53.582;10.096;2023-03-11T12:00:16;13.10;;;2.90;;
73550;SDS011;61816;53.582;10.096;2023-03-11T12:11:12;15.70;;;2.47;;
73550;SDS011;61816;53.582;10.096;2023-03-11T12:14:03;9.90;;;2.20;;
73550;SDS011;61816;53.582;10.096;2023-03-11T12:19:36;7.97;;;2.40;;
73550;SDS011;61816;53.582;10.096;2023-03-11T12:30:26;9.82;;;2.05;;
73550;SDS011;61816;53.582;10.096;2023-03-11T12:33:15;7.90;;;1.88;;
73550;SDS011;61816;53.582;10.096;2023-03-11T12:36:02;7.32;;;1.30;;
73550;SDS011;61816;53.582;10.096;2023-03-11T12:38:32;11.80;;;2.08;;
73550;SDS011;61816;53.582;10.096;2023-03-11T12:46:06;19.23;;;1.58;;
73550;SDS011;61816;53.582;10.096;2023-03-11T12:48:43;10.65;;;2.78;;
73550;SDS011;61816;53.582;10.096;2023-03-11T12:53:51;6.03;;;1.40;;
73550;SDS011;61816;53.582;10.096;2023-03-11T12:59:20;5.60;;;1.65;;
73550;SDS011;61816;53.582;10.096;2023-03-11T13:30:42;14.75;;;1.70;;
73550;SDS011;61816;53.582;10.096;2023-03-11T13:36:18;8.05;;;1.77;;
73550;SDS011;61816;53.582;10.096;2023-03-11T13:41:30;9.48;;;1.50;;
73550;SDS011;61816;53.582;10.096;2023-03-11T13:44:01;7.85;;;1.45;;
73550;SDS011;61816;53.582;10.096;2023-03-11T13:46:37;14.73;;;2.63;;
73550;SDS011;61816;53.582;10.096;2023-03-11T13:49:08;15.80;;;2.08;;
73550;SDS011;61816;53.582;10.096;2023-03-11T13:51:45;11.02;;;1.75;;
73550;SDS011;61816;53.582;10.096;2023-03-11T13:54:18;23.08;;;2.45;;
73550;SDS011;61816;53.582;10.096;2023-03-11T13:57:26;10.82;;;1.80;;
73550;SDS011;61816;53.582;10.096;2023-03-11T13:59:54;17.95;;;1.55;;
73550;SDS011;61816;53.582;10.096;2023-03-11T14:02:24;8.45;;;2.33;;
73550;SDS011;61816;53.582;10.096;2023-03-11T14:05:02;15.20;;;1.88;;
73550;SDS011;61816;53.582;10.096;2023-03-11T14:07:31;10.23;;;1.27;;
73550;SDS011;61816;53.582;10.096;2023-03-11T14:12:43;8.98;;;2.30;;
73550;SDS011;61816;53.582;10.096;2023-03-11T14:15:11;9.73;;;1.52;;
73550;SDS011;61816;53.582;10.096;2023-03-11T14:17:41;11.13;;;1.42;;
73550;SDS011;61816;53.582;10.096;2023-03-11T14:20:14;7.20;;;1.55;;
73550;SDS011;61816;53.582;10.096;2023-03-11T14:22:45;14.32;;;2.90;;
73550;SDS011;61816;53.582;10.096;2023-03-11T14:25:17;15.03;;;1.53;;
73550;SDS011;61816;53.582;10.096;2023-03-11T14:27:47;6.88;;;1.10;;
73550;SDS011;61816;53.582;10.096;2023-03-11T14:30:23;12.82;;;1.55;;
73550;SDS011;61816;53.582;10.096;2023-03-11T14:32:57;7.18;;;1.98;;
73550;SDS011;61816;53.582;10.096;2023-03-11T14:35:25;13.38;;;1.58;;
73550;SDS011;61816;53.582;10.096;2023-03-11T14:37:50;9.25;;;3.67;;
73550;SDS011;61816;53.582;10.096;2023-03-11T14:42:54;13.35;;;1.40;;
73550;SDS011;61816;53.582;10.096;2023-03-11T14:45:22;7.38;;;1.50;;
73550;SDS011;61816;53.582;10.096;2023-03-11T14:48:35;6.82;;;1.35;;
73550;SDS011;61816;53.582;10.096;2023-03-11T14:50:50;12.60;;;1.73;;
73550;SDS011;61816;53.582;10.096;2023-03-11T14:53:32;5.70;;;1.88;;
73550;SDS011;61816;53.582;10.096;2023-03-11T14:56:11;13.43;;;1.30;;
73550;SDS011;61816;53.582;10.096;2023-03-11T14:58:43;6.88;;;1.40;;
73550;SDS011;61816;53.582;10.096;2023-03-11T15:01:16;17.65;;;2.17;;
73550;SDS011;61816;53.582;10.096;2023-03-11T15:06:14;15.15;;;2.10;;
73550;SDS011;61816;53.582;10.096;2023-03-11T15:08:44;11.02;;;2.15;;
73550;SDS011;61816;53.582;10.096;2023-03-11T15:13:37;11.00;;;2.00;;
73550;SDS011;61816;53.582;10.096;2023-03-11T15:16:05;8.63;;;1.67;;
73550;SDS011;61816;53.582;10.096;2023-03-11T15:18:44;13.93;;;2.00;;
73550;SDS011;61816;53.582;10.096;2023-03-11T15:21:13;9.88;;;1.95;;
73550;SDS011;61816;53.582;10.096;2023-03-11T15:23:45;8.88;;;2.25;;
73550;SDS011;61816;53.582;10.096;2023-03-11T15:26:17;12.02;;;2.28;;
73550;SDS011;61816;53.582;10.096;2023-03-11T15:33:44;16.60;;;2.28;;
73550;SDS011;61816;53.582;10.096;2023-03-11T15:39:13;11.65;;;1.80;;
73550;SDS011;61816;53.582;10.096;2023-03-11T15:41:42;8.38;;;2.17;;
73550;SDS011;61816;53.582;10.096;2023-03-11T15:44:27;11.95;;;2.22;;
73550;SDS011;61816;53.582;10.096;2023-03-11T15:46:55;20.98;;;2.67;;
73550;SDS011;61816;53.582;10.096;2023-03-11T15:49:21;13.30;;;3.00;;
73550;SDS011;61816;53.582;10.096;2023-03-11T15:51:46;6.20;;;1.40;;
73550;SDS011;61816;53.582;10.096;2023-03-11T15:54:11;9.35;;;1.75;;
73550;SDS011;61816;53.582;10.096;2023-03-11T15:56:37;13.45;;;1.92;;
73550;SDS011;61816;53.582;10.096;2023-03-11T15:59:03;11.55;;;2.35;;
73550;SDS011;61816;53.582;10.096;2023-03-11T16:01:29;5.57;;;1.30;;
73550;SDS011;61816;53.582;10.096;2023-03-11T16:03:55;6.15;;;1.45;;
73550;SDS011;61816;53.582;10.096;2023-03-11T16:06:20;3.67;;;1.50;;
73550;SDS011;61816;53.582;10.096;2023-03-11T16:08:47;17.33;;;2.35;;
73550;SDS011;61816;53.582;10.096;2023-03-11T16:11:13;11.45;;;2.17;;
73550;SDS011;61816;53.582;10.096;2023-03-11T16:13:38;11.73;;;3.25;;
73550;SDS011;61816;53.582;10.096;2023-03-11T16:16:04;13.20;;;2.30;;
73550;SDS011;61816;53.582;10.096;2023-03-11T16:18:30;9.65;;;2.25;;
73550;SDS011;61816;53.582;10.096;2023-03-11T16:20:56;8.32;;;2.17;;